KGFL

Floyd Bennett Memorial Airport

Glens Falls, New York, USA
METAR KGFL 170353Z AUTO 00000KT 10SM FEW120 05/02 A2997 RMK AO2 SLP154 T00500022
Observed Flight Rules
Oct-17 @ 03:53 UTC (2 hours ago) Visual Flight Rules
Visibility Clouds
10 miles
  • Few at 12,000' AGL
Temperatures Readings
Current 5°C / 41°F
Dewpoint 2°C / 36°F
Humidity 81%
Altimeter 29.97" Hg
Pressure 1015.4 hPa
Elevation 103
METAR KGFL 170353Z AUTO 00000KT 10SM FEW120 05/02 A2997 RMK AO2 SLP154 T00500022
Observed Flight Rules
Oct-17 @ 03:53 UTC
(2 hours ago)
VFR
Clouds
  • Few at 12,000' AGL
Temperature Dewpoint
5°C / 41°F 2°C / 36°F
Humidity Altimeter Pressure
81% 29.97" Hg 1015.4 hPa